Address 0x40e02eb85d46fc82f7489666ca0faadfcd2df0fa 2

Overview

Balance:
4.744182124313562157 GLMR

GLMR Value:
$2.12 (@ $0.45/GLMR)

Token:
Txn Hash Method
Block
From
To
Value [Txn Fee]
0x4289e67e15375d141c834aa9004a2c6b12cd6be5ebad8479e5ed64b60224d7dbDeposit19294772022-09-23 13:54:068 days 3 hrs ago0x40e02eb85d46fc82f7489666ca0faadfcd2df0faOUT 0xf3a5454496e26ac57da879bf3285fa85debf03880 GLMR0.041169415
0xf9e464da3cad66dc4a83e2e30fe0463f9a4a7008eef02ffbcc33382fcd5ccf55Add Liquidity ET...19294672022-09-23 13:52:068 days 3 hrs ago0x40e02eb85d46fc82f7489666ca0faadfcd2df0faOUT StellaSwap: Router v2.121.94521052727809 GLMR0.016788506
0x711d4390fc860763dd2548b9a2355a6a7369bda576c39d589f63a6736c810e6fSwap Exact ETH F...19294562022-09-23 13:49:548 days 3 hrs ago0x40e02eb85d46fc82f7489666ca0faadfcd2df0faOUT StellaSwap: Router v2.122 GLMR0.0116935105
0xeda00bded224e150d3567472b40463a68a0bd191e0325decf65081c6684085fcTransfer19294342022-09-23 13:45:188 days 3 hrs agoBinance 1 IN 0x40e02eb85d46fc82f7489666ca0faadfcd2df0fa42.10994 GLMR0.0042
0xb9bf52a05f507077a9864c27ec0bd45f6915e69b289641717e34ae40c03c4efeHarvest Many18878812022-09-17 15:32:2414 days 2 hrs ago0x40e02eb85d46fc82f7489666ca0faadfcd2df0faOUT 0xf3a5454496e26ac57da879bf3285fa85debf03880 GLMR0.0424543035
0x20541a71c6783af111744466e9b944b43eab66e3f9770d7c761b024d85d20502Deposit17977102022-09-04 15:31:3627 days 2 hrs ago0x40e02eb85d46fc82f7489666ca0faadfcd2df0faOUT 0xf3a5454496e26ac57da879bf3285fa85debf03880 GLMR0.060113172
0xe9d2059dd336a09067e47d1f18dcfde27f22e4b89c79fb253d138a8490931ba3Approve17977042022-09-04 15:30:1827 days 2 hrs ago0x40e02eb85d46fc82f7489666ca0faadfcd2df0faOUT 0xa927e1e1e044ca1d9fe1854585003477331fe2af0 GLMR0.004721171
0xb96429f1529dc4b10e714d028e9bd9582dc8385aac41b9baa5a05c0454299500Add Liquidity ET...17976862022-09-04 15:26:1827 days 2 hrs ago0x40e02eb85d46fc82f7489666ca0faadfcd2df0faOUT StellaSwap: Router v2.1118.709130509854155 GLMR0.0167605935
0x81cef38ff7921e97d420e37a0756c5fed4b070af9287ca131362f41d828fd6e1Transfer*17976802022-09-04 15:25:0627 days 2 hrs ago0x40e02eb85d46fc82f7489666ca0faadfcd2df0faOUTMoonbeam Network: xcDOT Token0 GLMR0.003648925
0xdb59594c49df22fe04588ee0e3d758dcae46ba3e5e753d4dcb2ce8c96b223de7Swap Exact ETH F...17976672022-09-04 15:22:1827 days 2 hrs ago0x40e02eb85d46fc82f7489666ca0faadfcd2df0faOUT StellaSwap: Router v2.1119 GLMR0.01168265
0x21d6173a74bdc0f6e327c58557c04ace364a1c60e022af8ffef6e392c59d5722Transfer17976252022-09-04 15:13:3627 days 2 hrs agoBinance 1 IN 0x40e02eb85d46fc82f7489666ca0faadfcd2df0fa239.18423 GLMR0.0042
0x4167c5786126b7f2c0814faf1d31e847b4823de9daf702dbf63490cc489260eeTransfer17975782022-09-04 15:04:0027 days 2 hrs agoBinance 1 IN 0x40e02eb85d46fc82f7489666ca0faadfcd2df0fa1.99 GLMR0.0042
0x6599b0df7801f47c46b0b8123b365832c3784796802c38db195e13d6a99658d7Transfer13653202022-07-03 20:18:1289 days 21 hrs ago0x40e02eb85d46fc82f7489666ca0faadfcd2df0faOUT0x44c93c49e1bfba9511fcb1b498ee7f9022345af743.509761469864623 GLMR0.0021315
0xb97c4f5899721e7747cbb2ee1d89df301868ab5290c4327018e703d2844e68c7Redeem13643452022-07-03 16:51:4890 days 51 mins ago0x40e02eb85d46fc82f7489666ca0faadfcd2df0faOUT 0x091608f4e4a15335145be0a279483c0f8e4c79550 GLMR0.009753338
0xd30cd4f62abfce9367b9fdd17d0961be8051b2bed4a6e581bdfa4a579499805cMint13642202022-07-03 16:25:1890 days 1 hr ago0x40e02eb85d46fc82f7489666ca0faadfcd2df0faOUT 0x091608f4e4a15335145be0a279483c0f8e4c795535 GLMR0.016272886
0x42ee8cea59690f54ec9d52117b2f914144a4d2161223384571932ab6024fb140Swap Exact Token...13639532022-07-03 15:28:0690 days 2 hrs ago0x40e02eb85d46fc82f7489666ca0faadfcd2df0faOUT StellaSwap: Router v2.10 GLMR0.0114458505
0x2ea7ac3114d33ecb5e86d6876f1087e4001e012b30d4922d7625ce869a13debeRemove Liquidity...13639402022-07-03 15:25:3090 days 2 hrs ago0x40e02eb85d46fc82f7489666ca0faadfcd2df0faOUT StellaSwap: Router v2.10 GLMR0.019444964
0x023728b6b5dc7555320395b9a4dcecf3f68769b5d24f1aafa275734850d9befcApprove13639352022-07-03 15:24:3090 days 2 hrs ago0x40e02eb85d46fc82f7489666ca0faadfcd2df0faOUT 0x367c36dae9ba198a4fee295c22bc98cb72f77fe10 GLMR0.004721171
0x47054b647b795233368834ee1d328142d88735ba53b38dd8a467855b4d4419e8Mint13291562022-06-28 12:10:2495 days 5 hrs ago0x40e02eb85d46fc82f7489666ca0faadfcd2df0faOUT 0x091608f4e4a15335145be0a279483c0f8e4c79556.378643806873813 GLMR0.018285022
0x61545701601dc514baddf44ec4c01d91ec1d59f9cb5cc9725ef7af46c4f457aeApprove12970832022-06-23 17:36:18100 days 7 mins ago0x40e02eb85d46fc82f7489666ca0faadfcd2df0faOUT 0x367c36dae9ba198a4fee295c22bc98cb72f77fe10 GLMR0.004721171
0x2cd6aa91df1a1b84683d48b1cb2d652d38806c41be4fd88f91345cde4cba8175Add Liquidity ET...12970752022-06-23 17:34:42100 days 9 mins ago0x40e02eb85d46fc82f7489666ca0faadfcd2df0faOUT StellaSwap: Router v2.117.958099064334915 GLMR0.015431654
0xdaba4d0f872568c6f6cfc8ec1fffb79a47747dd465f024a60c8e98a4606b0224Approve12970692022-06-23 17:33:30100 days 10 mins ago0x40e02eb85d46fc82f7489666ca0faadfcd2df0faOUT Multichain: BUSD Token0 GLMR0.0047310165
0x0fad08f112f8b529cf9558ea61deff6be50fb8e3a1e980ffdf7249434fcafc55Swap Exact ETH F...12970592022-06-23 17:31:24100 days 12 mins ago0x40e02eb85d46fc82f7489666ca0faadfcd2df0faOUT StellaSwap: Router v2.118 GLMR0.012158685
0x3acdffc36b4f31a56b2dbf7cd916f612bf35b76c1f18701056e44e6bd1b419a5Transfer12970462022-06-23 17:28:36100 days 15 mins agoBinance 1 IN 0x40e02eb85d46fc82f7489666ca0faadfcd2df0fa39.5 GLMR0.0042
0x32341b9575faaa07bbf369c6737d7f7d3ab7ee12fc0679a6a7f7a2682be00ce4Transfer12970282022-06-23 17:24:30100 days 19 mins agoBinance 1 IN 0x40e02eb85d46fc82f7489666ca0faadfcd2df0fa5 GLMR0.0042
[ Download CSV Export 
Latest 5 internal transactions
Parent Txn Hash Block From To Value
0x4289e67e15375d141c834aa9004a2c6b12cd6be5ebad8479e5ed64b60224d7db19294772022-09-23 13:54:068 days 3 hrs ago 0xb7c18df30663da7c749181d5f8690dca4dafbf440x40e02eb85d46fc82f7489666ca0faadfcd2df0fa1.016201695193016751 GLMR
0xb9bf52a05f507077a9864c27ec0bd45f6915e69b289641717e34ae40c03c4efe18878812022-09-17 15:32:2414 days 2 hrs ago 0xb7c18df30663da7c749181d5f8690dca4dafbf440x40e02eb85d46fc82f7489666ca0faadfcd2df0fa2.306763712752791657 GLMR
0xb97c4f5899721e7747cbb2ee1d89df301868ab5290c4327018e703d2844e68c713643452022-07-03 16:51:4890 days 51 mins ago 0x091608f4e4a15335145be0a279483c0f8e4c79550x40e02eb85d46fc82f7489666ca0faadfcd2df0fa41.393190063454332047 GLMR
0x42ee8cea59690f54ec9d52117b2f914144a4d2161223384571932ab6024fb14013639532022-07-03 15:28:0690 days 2 hrs ago StellaSwap: Router v2.10x40e02eb85d46fc82f7489666ca0faadfcd2df0fa17.513095232813893803 GLMR
0x2ea7ac3114d33ecb5e86d6876f1087e4001e012b30d4922d7625ce869a13debe13639402022-07-03 15:25:3090 days 2 hrs ago StellaSwap: Router v2.10x40e02eb85d46fc82f7489666ca0faadfcd2df0fa17.559736302805126967 GLMR
[ Download CSV Export 
Loading

Contract Name:
0

Compiler Version
0

Optimization Enabled:
0

Other Settings:
-NA-
Block Transaction Gas Used Reward
Age Block Fee Address BC Fee Address Voting Power Jailed Incoming
Block Uncle Number Difficulty Gas Used Reward
Loading
Make sure to use the "Vote Down" button for any spammy posts, and the "Vote Up" for interesting conversations.